Latest Weather Observations for Scotts Peak

IDT60801

Issued at 5:21 pm EST Wednesday 23 September 2020 (issued every 10 minutes, with the page automatically refreshed every 10 minutes)

About weather observations | Map of weather stations | Latest weather observations for TAS | Other Formats
Station Details ID: 097083 Name: SCOTTS PEAK DAM Lat: -43.04 Lon: 146.27 Height: 408.0 m
Data from the previous 72 hours. | See also: Recent months at Scotts Peak
Date/Time
EST
Temp
°C
App
Temp
°C
Dew
Point
°C
Rel
Hum
%
Delta-T
°C
Wind Press
QNH
hPa
Press
MSL
hPa
Rain since
9am
mm
Dir  Spd
km/h
Gust
km/h
Spd
kts
Gust
kts
23/05:00pm 6.4 1.0 6.4 100 0.0 SW 24 33 13 18 - - 8.4
23/04:30pm 6.5 1.1 6.5 100 0.0 SW 24 37 13 20 - - 8.4
23/04:00pm 6.9 0.9 6.9 100 0.0 SW 28 39 15 21 - - 8.4
23/03:30pm 6.9 1.2 6.9 100 0.0 WSW 26 35 14 19 - - 8.2
23/03:00pm 7.6 2.1 7.6 100 0.0 WSW 26 39 14 21 - - 8.2
23/02:30pm 7.3 2.1 7.3 100 0.0 WSW 24 32 13 17 - - 7.6
23/02:00pm 7.6 1.7 7.6 100 0.0 WSW 28 41 15 22 - - 7.4
23/01:30pm 7.4 1.9 7.4 100 0.0 WSW 26 44 14 24 - - 6.8
23/01:07pm 8.0 2.6 8.0 100 0.0 WSW 26 56 14 30 - - 6.6
23/01:00pm 7.8 2.7 7.8 100 0.0 WSW 24 50 13 27 - - 6.6
23/12:33pm 7.6 1.7 7.6 100 0.0 SW 28 52 15 28 - - 6.0
23/12:30pm 7.5 2.4 7.5 100 0.0 SW 24 44 13 24 - - 6.0
23/12:00pm 7.5 1.6 7.5 100 0.0 WSW 28 50 15 27 - - 4.0
23/11:56am 7.3 2.9 7.3 100 0.0 WSW 20 50 11 27 - - 4.0
23/11:30am 8.0 3.4 8.0 100 0.0 WSW 22 39 12 21 - - 3.0
23/11:00am 8.1 3.1 8.1 100 0.0 WSW 24 41 13 22 - - 2.4
23/10:30am 8.2 3.6 8.2 100 0.0 WSW 22 39 12 21 - - 2.2
23/10:05am 7.5 1.6 7.5 100 0.0 W 28 50 15 27 - - 1.8
23/10:00am 7.7 2.6 7.7 100 0.0 W 24 43 13 23 - - 1.6
23/09:30am 8.2 3.2 8.2 100 0.0 W 24 41 13 22 - - 1.0
23/09:00am 8.0 2.2 8.0 100 0.0 W 28 43 15 23 - - 16.8
23/08:30am 7.1 1.9 7.1 100 0.0 W 24 41 13 22 - - 16.8
23/08:00am 7.1 0.7 7.1 100 0.0 W 30 59 16 32 - - 16.8
23/07:30am 6.9 0.1 6.9 100 0.0 W 32 52 17 28 - - 16.6
23/07:00am 6.8 -0.6 6.8 100 0.0 W 35 56 19 30 - - 16.2
23/06:30am 6.8 -0.2 6.8 100 0.0 W 33 52 18 28 - - 16.0
23/06:03am 6.9 0.9 6.9 100 0.0 W 28 48 15 26 - - 16.0
23/06:00am 6.9 0.9 6.9 100 0.0 W 28 37 15 20 - - 16.0
23/05:30am 6.9 -0.1 6.9 100 0.0 W 33 54 18 29 - - 15.8
23/05:18am 6.8 0.7 6.8 100 0.0 W 28 52 15 28 - - 15.4
23/05:00am 6.8 -1.0 6.8 100 0.0 WNW 37 54 20 29 - - 15.4
23/04:47am 6.9 -0.8 6.9 100 0.0 WNW 37 48 20 26 - - 15.0
23/04:30am 6.8 -0.2 6.8 100 0.0 W 33 50 18 27 - - 14.2
23/04:29am 6.9 -0.5 6.9 100 0.0 WNW 35 50 19 27 - - 14.2
23/04:00am 6.7 -1.5 6.7 100 0.0 WNW 39 57 21 31 - - 13.8
23/03:42am 6.6 -2.4 6.6 100 0.0 WNW 43 65 23 35 - - 13.0
23/03:30am 6.5 -4.9 6.5 100 0.0 NW 56 65 30 35 - - 12.6
23/03:00am 6.4 -5.3 6.4 100 0.0 NW 57 76 31 41 - - 12.0
23/02:56am 6.4 -5.3 6.4 100 0.0 NW 57 76 31 41 - - 12.0
23/02:30am 6.4 -7.2 6.4 100 0.0 NW 67 80 36 43 - - 11.6
23/02:06am 6.2 -6.6 6.2 100 0.0 NW 63 82 34 44 - - 11.4
23/02:00am 6.2 -5.5 6.2 100 0.0 NW 57 72 31 39 - - 11.4
23/01:30am 6.2 -6.3 6.2 100 0.0 NW 61 83 33 45 - - 10.4
23/01:17am 6.2 -6.3 6.2 100 0.0 NW 61 85 33 46 - - 10.0
23/01:00am 6.2 -7.0 6.2 100 0.0 NW 65 82 35 44 - - 10.0
23/12:35am 6.3 -6.9 6.3 100 0.0 NW 65 98 35 53 - - 9.8
23/12:30am 6.2 -6.6 6.2 100 0.0 NW 63 80 34 43 - - 9.8
23/12:00am 6.1 -6.4 6.1 100 0.0 NW 61 85 33 46 - - 9.6
 
Date/Time
EST
Temp
°C
App
Temp
°C
Dew
Point
°C
Rel
Hum
%
Delta-T
°C
Wind Press
QNH
hPa
Press
MSL
hPa
Rain since
9am
mm
Dir  Spd
km/h
Gust
km/h
Spd
kts
Gust
kts
22/11:30pm 6.0 -5.6 6.0 100 0.0 NW 56 76 30 41 - - 9.4
22/11:00pm 6.1 -4.7 6.1 100 0.0 NW 52 74 28 40 - - 9.2
22/10:39pm 6.1 -4.3 6.1 100 0.0 NW 50 69 27 37 - - 9.0
22/10:30pm 6.1 -3.5 6.1 100 0.0 NW 46 61 25 33 - - 9.0
22/10:02pm 6.1 -4.7 6.1 100 0.0 NW 52 72 28 39 - - 8.4
22/10:00pm 6.1 -5.1 6.1 100 0.0 NW 54 65 29 35 - - 8.4
22/09:51pm 6.0 -3.7 6.0 100 0.0 NW 46 65 25 35 - - 8.4
22/09:30pm 5.9 -2.1 5.9 100 0.0 WNW 37 48 20 26 - - 8.0
22/09:09pm 6.2 -1.3 6.2 100 0.0 WNW 35 54 19 29 - - 7.4
22/09:00pm 6.5 -1.3 6.5 100 0.0 WNW 37 46 20 25 - - 7.2
22/08:31pm 6.5 -4.6 6.5 100 0.0 NW 54 72 29 39 - - 6.6
22/08:30pm 6.5 -4.6 6.5 100 0.0 NW 54 65 29 35 - - 6.6
22/08:23pm 6.6 -5.0 6.6 100 0.0 NW 57 76 31 41 - - 6.4
22/08:20pm 6.7 -4.9 6.7 100 0.0 NW 57 76 31 41 - - 6.2
22/08:11pm 7.0 -1.9 7.0 100 0.0 NW 43 65 23 35 - - 5.8
22/08:00pm 6.9 0.5 6.9 100 0.0 NW 30 37 16 20 - - 5.6
22/07:30pm 7.1 0.3 7.1 100 0.0 NNW 32 41 17 22 - - 4.2
22/07:00pm 7.3 -0.4 7.3 100 0.0 NNW 37 48 20 26 - - 3.8
22/06:30pm 7.3 -1.4 5.8 90 0.7 NNW 41 56 22 30 - - 3.8
22/06:00pm 6.8 -1.0 5.1 89 0.8 NW 35 48 19 26 - - 3.8
22/05:30pm 7.7 0.1 5.7 87 0.9 NNW 35 44 19 24 - - 3.8
22/05:00pm 8.3 0.0 7.7 96 0.3 NW 41 50 22 27 - - 3.8
22/04:30pm 8.0 0.1 8.0 100 0.0 WNW 39 54 21 29 - - 3.8
22/04:00pm 9.0 0.2 8.2 95 0.4 WNW 44 54 24 29 - - 3.8
22/03:38pm 7.7 -3.1 7.7 100 0.0 WNW 54 72 29 39 - - 3.8
22/03:32pm 7.8 -0.7 6.9 94 0.4 WNW 41 65 22 35 - - 3.6
22/03:30pm 8.4 1.5 7.2 92 0.6 WNW 33 65 18 35 - - 3.6
22/03:29pm 8.9 2.1 7.0 88 0.9 WNW 32 52 17 28 - - 3.6
22/03:00pm 10.6 4.3 9.8 95 0.4 NW 33 50 18 27 - - 3.6
22/02:43pm 11.3 5.6 11.3 100 0.0 NW 32 54 17 29 - - 3.6
22/02:30pm 9.1 2.8 9.1 100 0.0 WNW 32 41 17 22 - - 3.6
22/02:00pm 10.5 5.8 10.5 100 0.0 NW 26 32 14 17 - - 3.2
22/01:39pm 10.0 4.0 10.0 100 0.0 NW 32 54 17 29 - - 3.2
22/01:30pm 9.6 4.2 9.6 100 0.0 NW 28 37 15 20 - - 3.2
22/01:00pm 9.9 3.8 9.9 100 0.0 NNW 32 39 17 21 - - 3.0
22/12:30pm 9.6 4.6 9.6 100 0.0 NNW 26 37 14 20 - - 3.0
22/12:00pm 9.4 4.7 9.4 100 0.0 NNW 24 35 13 19 - - 2.4
22/11:30am 8.7 3.5 8.7 100 0.0 NNW 26 43 14 23 - - 1.6
22/11:00am 8.8 1.9 8.8 100 0.0 NNW 35 46 19 25 - - 1.6
22/10:45am 8.4 1.0 8.4 100 0.0 NNW 37 56 20 30 - - 1.4
22/10:30am 8.8 1.1 8.8 100 0.0 NNW 39 52 21 28 - - 1.2
22/10:05am 8.4 -0.3 8.4 100 0.0 NNW 44 63 24 34 - - 0.6
22/10:00am 8.4 -0.7 8.4 100 0.0 NW 46 63 25 34 - - 0.6
22/09:30am 8.6 -1.2 8.6 100 0.0 NNW 50 69 27 37 - - 0.4
22/09:02am 8.1 -1.8 8.1 100 0.0 NNW 50 70 27 38 - - 0.0
22/09:00am 7.9 -1.7 7.9 100 0.0 NNW 48 61 26 33 - - 7.8
22/08:35am 7.5 -0.9 7.5 100 0.0 NNW 41 61 22 33 - - 7.2
22/08:30am 7.7 0.5 7.7 100 0.0 NNW 35 44 19 24 - - 6.6
22/08:00am 7.4 0.5 7.4 100 0.0 NNW 33 52 18 28 - - 5.8
22/07:30am 7.1 -1.4 7.1 100 0.0 NNW 41 54 22 29 - - 5.6
22/07:00am 6.9 -2.2 6.9 100 0.0 NNW 44 56 24 30 - - 5.0
22/06:30am 7.0 -3.6 7.0 100 0.0 NNW 52 70 28 38 - - 4.6
22/06:18am 6.9 -2.0 6.9 100 0.0 NNW 43 65 23 35 - - 4.2
22/06:00am 6.8 -3.1 6.8 100 0.0 NNW 48 61 26 33 - - 4.2
22/05:30am 6.8 -1.7 6.8 100 0.0 NNW 41 50 22 27 - - 4.0
22/05:00am 6.8 -2.7 6.8 100 0.0 NNW 46 56 25 30 - - 2.8
22/04:46am 6.7 -3.6 6.7 100 0.0 NNW 50 69 27 37 - - 2.8
22/04:30am 6.7 -4.3 6.7 100 0.0 NNW 54 65 29 35 - - 2.8
22/04:11am 6.7 -3.2 6.7 100 0.0 NNW 48 67 26 36 - - 2.6
22/04:00am 6.6 -3.7 6.6 100 0.0 NNW 50 59 27 32 - - 2.6
22/03:37am 6.9 -1.6 6.9 100 0.0 NNW 41 59 22 32 - - 2.0
22/03:30am 6.9 -1.2 6.9 100 0.0 NNW 39 46 21 25 - - 1.8
22/03:16am 6.8 -2.7 6.8 100 0.0 NNW 46 57 25 31 - - 1.2
22/03:00am 6.9 -5.0 6.9 100 0.0 NNW 59 72 32 39 - - 1.0
22/02:52am 7.0 -3.2 7.0 100 0.0 NNW 50 67 27 36 - - 1.0
22/02:42am 7.3 -0.7 7.3 100 0.0 NNW 39 57 21 31 - - 0.6
22/02:30am 7.5 0.3 7.5 100 0.0 NNW 35 41 19 22 - - 0.2
22/02:00am 8.3 0.0 6.1 86 1.0 NNW 39 56 21 30 - - 0.0
22/01:36am 8.5 -2.8 5.6 82 1.3 NNW 54 72 29 39 - - 0.0
22/01:30am 9.0 -1.5 5.4 78 1.7 NNW 50 63 27 34 - - 0.0
22/01:00am 9.3 -0.3 4.5 72 2.2 NNW 44 57 24 31 - - 0.0
22/12:49am 9.5 -0.1 4.3 70 2.4 NNW 44 65 24 35 - - 0.0
22/12:30am 9.3 0.0 4.9 74 2.0 NNW 43 54 23 29 - - 0.0
22/12:00am 9.1 0.6 5.1 76 1.8 NNW 39 61 21 33 - - 0.0
 
Date/Time
EST
Temp
°C
App
Temp
°C
Dew
Point
°C
Rel
Hum
%
Delta-T
°C
Wind Press
QNH
hPa
Press
MSL
hPa
Rain since
9am
mm
Dir  Spd
km/h
Gust
km/h
Spd
kts
Gust
kts
21/11:55pm 8.9 1.6 4.7 75 1.9 NNW 32 56 17 30 - - 0.0
21/11:30pm 8.7 2.9 6.2 84 1.2 NNW 26 33 14 18 - - 0.0
21/11:00pm 8.4 4.2 5.5 82 1.3 NNW 17 26 9 14 - - 0.0
21/10:30pm 7.8 3.1 5.3 84 1.1 NNW 19 26 10 14 - - 0.0
21/10:00pm 8.0 2.9 5.8 86 1.0 NNW 22 32 12 17 - - 0.0
21/09:30pm 8.0 3.0 6.6 91 0.7 NNW 22 28 12 15 - - 0.0
21/09:00pm 8.5 3.3 7.1 91 0.7 NNW 24 33 13 18 - - 0.0
21/08:30pm 9.0 4.7 7.8 92 0.6 NNW 20 28 11 15 - - 0.0
21/08:00pm 9.2 3.5 6.6 84 1.2 NNW 26 30 14 16 - - 0.0
21/07:30pm 9.6 3.1 6.5 81 1.5 NNW 30 35 16 19 - - 0.0
21/07:00pm 9.6 2.0 6.0 78 1.7 NNW 35 46 19 25 - - 0.0
21/06:30pm 9.7 3.3 5.1 73 2.1 NNW 28 41 15 22 - - 0.0
21/06:00pm 10.2 2.4 5.0 70 2.4 NNW 35 50 19 27 - - 0.0
21/05:30pm 11.0 2.0 4.5 64 3.0 NNW 41 56 22 30 - - 0.0
21/05:00pm 12.4 3.3 3.9 56 3.9 NNW 41 57 22 31 - - 0.0
21/04:30pm 14.5 7.3 5.8 56 4.2 NNW 33 43 18 23 - - 0.0
21/04:00pm 15.5 8.2 5.4 51 4.9 NNW 33 44 18 24 - - 0.0
21/03:30pm 16.6 10.8 6.4 51 5.1 NNW 26 37 14 20 - - 0.0
21/03:00pm 15.6 7.7 6.3 54 4.6 NNW 37 44 20 24 - - 0.0
21/02:31pm 15.2 6.3 7.0 58 4.1 NNW 43 61 23 33 - - 0.0
21/02:30pm 15.1 6.0 6.7 57 4.2 NNW 44 61 24 33 - - 0.0
21/02:08pm 14.4 4.8 6.3 58 4.0 NNW 46 65 25 35 - - 0.0
21/02:00pm 14.7 5.4 7.5 62 3.6 NNW 46 59 25 32 - - 0.0
21/01:42pm 13.7 3.9 7.2 65 3.2 NNW 48 69 26 37 - - 0.0
21/01:30pm 12.3 1.7 8.4 77 2.0 NNW 54 65 29 35 - - 0.0
21/01:05pm 12.7 1.5 5.8 63 3.3 NNW 54 72 29 39 - - 0.0
21/01:00pm 14.2 4.1 7.3 63 3.5 NNW 50 61 27 33 - - 0.0
21/12:30pm 12.4 2.4 7.9 74 2.3 NW 50 65 27 35 - - 0.0
21/12:05pm 13.4 3.1 6.7 64 3.3 NNW 50 70 27 38 - - 0.0
21/12:00pm 13.1 3.4 7.3 68 2.9 NW 48 63 26 34 - - 0.0
21/11:41am 12.5 1.8 6.5 67 2.9 NNW 52 72 28 39 - - 0.0
21/11:30am 11.7 0.4 5.6 66 2.9 NNW 54 70 29 38 - - 0.0
21/11:01am 11.2 1.8 7.1 76 2.0 NNW 46 65 25 35 - - 0.0
21/11:00am 11.0 1.2 6.9 76 2.0 NNW 48 65 26 35 - - 0.0
21/10:33am 13.6 4.4 8.0 69 2.8 NNW 46 65 25 35 - - 0.0
21/10:30am 12.4 2.7 7.3 71 2.5 NNW 48 65 26 35 - - 0.0
21/10:10am 11.9 0.9 6.8 71 2.5 NNW 54 74 29 40 - - 0.0
21/10:00am 11.9 1.1 7.6 75 2.1 NNW 54 69 29 37 - - 0.0
21/09:32am 10.9 2.8 8.8 87 1.1 NNW 41 59 22 32 - - 0.0
21/09:30am 10.7 2.7 9.0 89 0.9 NNW 41 56 22 30 - - 0.0
21/09:00am 10.2 3.1 9.4 95 0.4 NNW 37 54 20 29 - - 7.4
21/08:30am 8.6 2.0 8.6 100 0.0 NNW 33 44 18 24 - - 7.4
21/08:00am 8.4 1.0 8.4 100 0.0 NNW 37 48 20 26 - - 7.4
21/07:30am 8.8 0.4 8.8 100 0.0 NNW 43 52 23 28 - - 6.8
21/07:21am 9.1 -1.3 9.1 100 0.0 NNW 54 72 29 39 - - 6.6
21/07:00am 9.8 -0.8 9.8 100 0.0 NNW 56 70 30 38 - - 6.4
21/06:32am 10.0 0.2 10.0 100 0.0 NNW 52 72 28 39 - - 6.4
21/06:30am 10.0 0.6 10.0 100 0.0 NNW 50 67 27 36 - - 6.4
21/06:07am 11.0 3.9 11.0 100 0.0 NW 39 70 21 38 - - 6.0
21/06:00am 11.4 4.4 11.4 100 0.0 NNW 39 57 21 31 - - 5.8
21/05:53am 11.1 6.9 11.1 100 0.0 NNW 24 57 13 31 - - 4.8
21/05:30am 11.0 8.9 11.0 100 0.0 N 13 20 7 11 - - 1.4
21/05:00am 11.1 7.7 11.1 100 0.0 NNE 20 28 11 15 - - 1.2
21/04:30am 12.0 9.9 9.7 86 1.2 NE 11 20 6 11 - - 0.2
21/04:00am 12.9 11.9 8.8 76 2.1 E 4 17 2 9 - - 0.0
21/03:30am 12.5 9.8 9.0 79 1.8 NNE 13 20 7 11 - - 0.0
21/03:00am 12.0 10.7 10.1 88 1.0 N 7 13 4 7 - - 0.0
21/02:30am 11.9 11.8 10.8 93 0.6 WNW 2 9 1 5 - - 0.0
21/02:00am 11.0 8.7 10.4 96 0.3 N 13 19 7 10 - - 0.0
21/01:30am 11.2 9.7 10.6 96 0.3 N 9 13 5 7 - - 0.0
21/01:00am 11.5 7.9 10.7 95 0.4 NNW 20 24 11 13 - - 0.0
21/12:30am 12.0 7.7 10.6 91 0.7 NNW 24 28 13 15 - - 0.0
21/12:00am 12.2 8.3 10.9 92 0.7 NNW 22 28 12 15 - - 0.0
 
Date/Time
EST
Temp
°C
App
Temp
°C
Dew
Point
°C
Rel
Hum
%
Delta-T
°C
Wind Press
QNH
hPa
Press
MSL
hPa
Rain since
9am
mm
Dir  Spd
km/h
Gust
km/h
Spd
kts
Gust
kts
20/11:30pm 12.3 7.3 10.9 91 0.7 NNW 28 32 15 17 - - 0.0
20/11:00pm 12.6 7.3 11.2 91 0.8 NNW 30 39 16 21 - - 0.0
20/10:30pm 12.3 7.5 11.5 95 0.4 NNW 28 43 15 23 - - 0.0
20/10:00pm 12.1 7.8 11.9 99 0.1 NNW 26 43 14 23 - - 0.0
20/09:30pm 12.7 7.8 11.4 92 0.7 NNW 28 50 15 27 - - 0.0
20/09:10pm 13.6 8.4 10.2 80 1.8 NNW 28 46 15 25 - - 0.0
20/09:00pm 13.8 7.8 10.0 78 2.0 NNW 32 41 17 22 - - 0.0
20/08:30pm 13.6 7.8 9.6 77 2.1 NNW 30 37 16 20 - - 0.0
20/08:00pm 13.5 9.8 10.3 81 1.7 NNW 20 24 11 13 - - 0.0
20/07:30pm 13.7 9.4 10.7 82 1.6 NNW 24 33 13 18 - - 0.0
20/07:00pm 13.5 9.5 10.3 81 1.7 NNW 22 28 12 15 - - 0.0
20/06:30pm 14.2 9.0 10.4 78 2.0 NNW 28 37 15 20 - - 0.0
20/06:00pm 14.4 8.9 10.6 78 2.0 NNW 30 37 16 20 - - 0.0
20/05:30pm 15.1 10.1 11.1 77 2.2 NNW 28 32 15 17 - - 0.0

Other formats

Comma delimited format used in spreadsheet applications
http://www.bom.gov.au/fwo/IDT60801/IDT60801.95958.axf

JavaScript Object Notation format (JSON) in row-major order
http://www.bom.gov.au/fwo/IDT60801/IDT60801.95958.json

Data quality

Most of these data are generated automatically and are frequently updated. Quality checks on data are not normally performed. It is possible for incorrect values to appear. Refer to information at About Latest Weather Observations and please check the disclaimer before using these data.